sensor_id;sensor_type;location;lat;lon;timestamp;P1;durP1;ratioP1;P2;durP2;ratioP2
13368;SDS011;6753;52.520;13.450;2023-01-23T00:00:05;1159.30;;;968.67;;
13368;SDS011;6753;52.520;13.450;2023-01-23T00:00:20;1160.70;;;969.28;;
13368;SDS011;6753;52.520;13.450;2023-01-23T00:00:31;1160.03;;;968.35;;
13368;SDS011;6753;52.520;13.450;2023-01-23T00:00:45;1159.53;;;967.70;;
13368;SDS011;6753;52.520;13.450;2023-01-23T00:00:56;1159.43;;;966.30;;
13368;SDS011;6753;52.520;13.450;2023-01-23T00:01:09;1157.05;;;966.28;;
13368;SDS011;6753;52.520;13.450;2023-01-23T00:01:23;1155.00;;;964.75;;
13368;SDS011;6753;52.520;13.450;2023-01-23T00:01:35;1153.93;;;965.67;;
13368;SDS011;6753;52.520;13.450;2023-01-23T00:01:47;1149.70;;;964.20;;
13368;SDS011;6753;52.520;13.450;2023-01-23T00:01:59;1148.53;;;963.22;;
13368;SDS011;6753;52.520;13.450;2023-01-23T00:02:10;1147.77;;;962.50;;
13368;SDS011;6753;52.520;13.450;2023-01-23T00:02:20;1143.90;;;962.80;;
13368;SDS011;6753;52.520;13.450;2023-01-23T00:02:31;1141.03;;;961.42;;
13368;SDS011;6753;52.520;13.450;2023-01-23T00:02:42;1141.67;;;960.90;;
13368;SDS011;6753;52.520;13.450;2023-01-23T00:02:56;1141.43;;;959.83;;
13368;SDS011;6753;52.520;13.450;2023-01-23T00:03:07;1139.75;;;957.78;;
13368;SDS011;6753;52.520;13.450;2023-01-23T00:03:18;1140.78;;;956.75;;
13368;SDS011;6753;52.520;13.450;2023-01-23T00:03:29;1142.25;;;957.17;;
13368;SDS011;6753;52.520;13.450;2023-01-23T00:03:40;1140.13;;;957.17;;
13368;SDS011;6753;52.520;13.450;2023-01-23T00:03:51;1140.88;;;959.80;;
13368;SDS011;6753;52.520;13.450;2023-01-23T00:04:02;1141.95;;;960.30;;
13368;SDS011;6753;52.520;13.450;2023-01-23T00:04:14;1142.13;;;961.08;;
13368;SDS011;6753;52.520;13.450;2023-01-23T00:04:25;1141.70;;;960.80;;
13368;SDS011;6753;52.520;13.450;2023-01-23T00:04:36;1142.43;;;961.90;;
13368;SDS011;6753;52.520;13.450;2023-01-23T00:04:47;1140.70;;;960.25;;
13368;SDS011;6753;52.520;13.450;2023-01-23T00:04:58;1137.97;;;958.83;;
13368;SDS011;6753;52.520;13.450;2023-01-23T00:05:09;1134.43;;;957.55;;
13368;SDS011;6753;52.520;13.450;2023-01-23T00:05:20;1132.03;;;956.17;;
13368;SDS011;6753;52.520;13.450;2023-01-23T00:05:30;1127.65;;;955.75;;
13368;SDS011;6753;52.520;13.450;2023-01-23T00:05:41;1122.90;;;952.83;;
13368;SDS011;6753;52.520;13.450;2023-01-23T00:05:55;1122.38;;;950.88;;
13368;SDS011;6753;52.520;13.450;2023-01-23T00:06:09;1119.65;;;949.38;;
13368;SDS011;6753;52.520;13.450;2023-01-23T00:06:22;1120.40;;;949.00;;
13368;SDS011;6753;52.520;13.450;2023-01-23T00:06:33;1118.40;;;948.03;;
13368;SDS011;6753;52.520;13.450;2023-01-23T00:06:44;1121.53;;;947.88;;
13368;SDS011;6753;52.520;13.450;2023-01-23T00:06:55;1122.53;;;948.90;;
13368;SDS011;6753;52.520;13.450;2023-01-23T00:07:06;1122.07;;;948.33;;
13368;SDS011;6753;52.520;13.450;2023-01-23T00:07:18;1118.20;;;946.70;;
13368;SDS011;6753;52.520;13.450;2023-01-23T00:07:28;1119.90;;;946.97;;
13368;SDS011;6753;52.520;13.450;2023-01-23T00:07:39;1120.47;;;946.80;;
13368;SDS011;6753;52.520;13.450;2023-01-23T00:07:50;1118.50;;;947.10;;
13368;SDS011;6753;52.520;13.450;2023-01-23T00:08:00;1120.07;;;949.90;;
13368;SDS011;6753;52.520;13.450;2023-01-23T00:08:11;1125.70;;;952.85;;
13368;SDS011;6753;52.520;13.450;2023-01-23T00:08:24;1128.55;;;954.42;;
13368;SDS011;6753;52.520;13.450;2023-01-23T00:08:36;1132.50;;;957.03;;
13368;SDS011;6753;52.520;13.450;2023-01-23T00:08:48;1135.38;;;957.35;;
13368;SDS011;6753;52.520;13.450;2023-01-23T00:08:59;1135.72;;;957.25;;
13368;SDS011;6753;52.520;13.450;2023-01-23T00:09:10;1134.30;;;956.38;;
13368;SDS011;6753;52.520;13.450;2023-01-23T00:09:21;1133.72;;;955.33;;
13368;SDS011;6753;52.520;13.450;2023-01-23T00:09:35;1134.70;;;955.50;;
13368;SDS011;6753;52.520;13.450;2023-01-23T00:09:45;1135.68;;;957.10;;
13368;SDS011;6753;52.520;13.450;2023-01-23T00:09:56;1138.28;;;957.22;;
13368;SDS011;6753;52.520;13.450;2023-01-23T00:10:09;1138.03;;;956.65;;
13368;SDS011;6753;52.520;13.450;2023-01-23T00:10:20;1145.97;;;960.28;;
13368;SDS011;6753;52.520;13.450;2023-01-23T00:10:31;1144.83;;;958.90;;
13368;SDS011;6753;52.520;13.450;2023-01-23T00:10:41;1143.82;;;958.25;;
13368;SDS011;6753;52.520;13.450;2023-01-23T00:10:55;1143.88;;;959.67;;
13368;SDS011;6753;52.520;13.450;2023-01-23T00:11:07;1149.93;;;962.38;;
13368;SDS011;6753;52.520;13.450;2023-01-23T00:11:20;1151.00;;;965.05;;
13368;SDS011;6753;52.520;13.450;2023-01-23T00:11:33;1151.43;;;966.30;;
13368;SDS011;6753;52.520;13.450;2023-01-23T00:11:45;1159.05;;;970.55;;
13368;SDS011;6753;52.520;13.450;2023-01-23T00:11:56;1159.88;;;971.30;;
13368;SDS011;6753;52.520;13.450;2023-01-23T00:12:06;1160.78;;;972.35;;
13368;SDS011;6753;52.520;13.450;2023-01-23T00:12:17;1163.90;;;972.00;;
13368;SDS011;6753;52.520;13.450;2023-01-23T00:12:28;1164.73;;;970.97;;
13368;SDS011;6753;52.520;13.450;2023-01-23T00:12:40;1167.50;;;971.17;;
13368;SDS011;6753;52.520;13.450;2023-01-23T00:12:52;1166.95;;;969.38;;
13368;SDS011;6753;52.520;13.450;2023-01-23T00:13:03;1161.32;;;966.78;;
13368;SDS011;6753;52.520;13.450;2023-01-23T00:13:14;1156.15;;;965.05;;
13368;SDS011;6753;52.520;13.450;2023-01-23T00:13:26;1157.95;;;965.95;;
13368;SDS011;6753;52.520;13.450;2023-01-23T00:13:37;1156.55;;;966.05;;
13368;SDS011;6753;52.520;13.450;2023-01-23T00:13:48;1160.05;;;968.65;;
13368;SDS011;6753;52.520;13.450;2023-01-23T00:14:00;1161.38;;;970.78;;
13368;SDS011;6753;52.520;13.450;2023-01-23T00:14:14;1163.18;;;972.75;;
13368;SDS011;6753;52.520;13.450;2023-01-23T00:14:25;1162.57;;;973.72;;
13368;SDS011;6753;52.520;13.450;2023-01-23T00:14:36;1162.57;;;974.33;;
13368;SDS011;6753;52.520;13.450;2023-01-23T00:14:47;1160.63;;;973.88;;
13368;SDS011;6753;52.520;13.450;2023-01-23T00:14:58;1162.85;;;973.70;;
13368;SDS011;6753;52.520;13.450;2023-01-23T00:15:09;1165.60;;;973.93;;
13368;SDS011;6753;52.520;13.450;2023-01-23T00:15:22;1169.13;;;973.05;;
13368;SDS011;6753;52.520;13.450;2023-01-23T00:15:32;1170.80;;;973.00;;
13368;SDS011;6753;52.520;13.450;2023-01-23T00:15:43;1173.70;;;973.10;;
13368;SDS011;6753;52.520;13.450;2023-01-23T00:15:54;1174.82;;;973.70;;
13368;SDS011;6753;52.520;13.450;2023-01-23T00:16:05;1174.20;;;973.65;;
13368;SDS011;6753;52.520;13.450;2023-01-23T00:16:16;1174.55;;;973.53;;
13368;SDS011;6753;52.520;13.450;2023-01-23T00:16:29;1174.55;;;974.50;;
13368;SDS011;6753;52.520;13.450;2023-01-23T00:16:41;1173.68;;;975.15;;
13368;SDS011;6753;52.520;13.450;2023-01-23T00:16:53;1173.50;;;974.22;;
13368;SDS011;6753;52.520;13.450;2023-01-23T00:17:03;1172.97;;;974.90;;
13368;SDS011;6753;52.520;13.450;2023-01-23T00:17:14;1172.90;;;974.63;;
13368;SDS011;6753;52.520;13.450;2023-01-23T00:17:25;1173.68;;;974.00;;
13368;SDS011;6753;52.520;13.450;2023-01-23T00:17:36;1176.38;;;974.50;;
13368;SDS011;6753;52.520;13.450;2023-01-23T00:17:47;1176.78;;;974.25;;
13368;SDS011;6753;52.520;13.450;2023-01-23T00:17:57;1174.17;;;974.00;;
13368;SDS011;6753;52.520;13.450;2023-01-23T00:18:08;1170.35;;;973.95;;
13368;SDS011;6753;52.520;13.450;2023-01-23T00:18:19;1168.65;;;973.80;;
13368;SDS011;6753;52.520;13.450;2023-01-23T00:18:31;1167.93;;;972.03;;
13368;SDS011;6753;52.520;13.450;2023-01-23T00:18:44;1163.25;;;971.25;;
13368;SDS011;6753;52.520;13.450;2023-01-23T00:18:55;1160.80;;;969.13;;
13368;SDS011;6753;52.520;13.450;2023-01-23T00:19:08;1157.22;;;966.75;;
13368;SDS011;6753;52.520;13.450;2023-01-23T00:19:19;1155.22;;;966.22;;
13368;SDS011;6753;52.520;13.450;2023-01-23T00:19:31;1148.30;;;965.78;;
13368;SDS011;6753;52.520;13.450;2023-01-23T00:19:41;1143.72;;;963.58;;
13368;SDS011;6753;52.520;13.450;2023-01-23T00:19:52;1142.03;;;961.90;;
13368;SDS011;6753;52.520;13.450;2023-01-23T00:20:04;1141.43;;;962.17;;
13368;SDS011;6753;52.520;13.450;2023-01-23T00:20:15;1135.38;;;957.30;;
13368;SDS011;6753;52.520;13.450;2023-01-23T00:20:26;1126.55;;;953.17;;
13368;SDS011;6753;52.520;13.450;2023-01-23T00:20:37;1121.03;;;950.55;;
13368;SDS011;6753;52.520;13.450;2023-01-23T00:20:48;1116.07;;;948.28;;
13368;SDS011;6753;52.520;13.450;2023-01-23T00:21:02;1112.13;;;945.58;;
13368;SDS011;6753;52.520;13.450;2023-01-23T00:21:15;1108.15;;;945.22;;
13368;SDS011;6753;52.520;13.450;2023-01-23T00:21:27;1107.05;;;946.72;;
13368;SDS011;6753;52.520;13.450;2023-01-23T00:21:40;1105.60;;;945.78;;
13368;SDS011;6753;52.520;13.450;2023-01-23T00:21:50;1104.15;;;944.13;;
13368;SDS011;6753;52.520;13.450;2023-01-23T00:22:02;1104.90;;;943.72;;
13368;SDS011;6753;52.520;13.450;2023-01-23T00:22:13;1102.75;;;943.00;;
13368;SDS011;6753;52.520;13.450;2023-01-23T00:22:24;1106.40;;;943.40;;
13368;SDS011;6753;52.520;13.450;2023-01-23T00:22:35;1111.40;;;942.47;;
13368;SDS011;6753;52.520;13.450;2023-01-23T00:22:46;1113.23;;;944.10;;
13368;SDS011;6753;52.520;13.450;2023-01-23T00:22:57;1112.03;;;943.90;;
13368;SDS011;6753;52.520;13.450;2023-01-23T00:23:08;1118.35;;;947.85;;
13368;SDS011;6753;52.520;13.450;2023-01-23T00:23:20;1121.72;;;950.10;;
13368;SDS011;6753;52.520;13.450;2023-01-23T00:23:31;1121.75;;;952.50;;
13368;SDS011;6753;52.520;13.450;2023-01-23T00:23:43;1126.65;;;954.53;;
13368;SDS011;6753;52.520;13.450;2023-01-23T00:23:58;1128.85;;;955.25;;
13368;SDS011;6753;52.520;13.450;2023-01-23T00:24:11;1125.47;;;953.40;;
13368;SDS011;6753;52.520;13.450;2023-01-23T00:24:22;1128.40;;;954.10;;
13368;SDS011;6753;52.520;13.450;2023-01-23T00:24:32;1131.53;;;954.90;;
13368;SDS011;6753;52.520;13.450;2023-01-23T00:24:43;1131.17;;;956.10;;
13368;SDS011;6753;52.520;13.450;2023-01-23T00:24:54;1134.82;;;958.70;;
13368;SDS011;6753;52.520;13.450;2023-01-23T00:25:05;1135.20;;;959.45;;
13368;SDS011;6753;52.520;13.450;2023-01-23T00:25:17;1137.50;;;960.30;;
13368;SDS011;6753;52.520;13.450;2023-01-23T00:25:27;1136.30;;;959.65;;
13368;SDS011;6753;52.520;13.450;2023-01-23T00:25:38;1134.90;;;958.17;;
13368;SDS011;6753;52.520;13.450;2023-01-23T00:25:49;1136.15;;;957.33;;
13368;SDS011;6753;52.520;13.450;2023-01-23T00:26:03;1134.97;;;956.22;;
13368;SDS011;6753;52.520;13.450;2023-01-23T00:26:15;1132.88;;;954.97;;
13368;SDS011;6753;52.520;13.450;2023-01-23T00:26:27;1127.95;;;952.72;;
13368;SDS011;6753;52.520;13.450;2023-01-23T00:26:41;1123.88;;;951.50;;
13368;SDS011;6753;52.520;13.450;2023-01-23T00:26:52;1115.35;;;948.95;;
13368;SDS011;6753;52.520;13.450;2023-01-23T00:27:04;1112.50;;;946.72;;
13368;SDS011;6753;52.520;13.450;2023-01-23T00:27:14;1107.20;;;943.77;;
13368;SDS011;6753;52.520;13.450;2023-01-23T00:27:25;1104.07;;;941.85;;
13368;SDS011;6753;52.520;13.450;2023-01-23T00:27:36;1100.55;;;940.22;;
13368;SDS011;6753;52.520;13.450;2023-01-23T00:27:48;1101.77;;;939.90;;
13368;SDS011;6753;52.520;13.450;2023-01-23T00:27:59;1102.47;;;940.10;;
13368;SDS011;6753;52.520;13.450;2023-01-23T00:28:09;1101.03;;;941.13;;
13368;SDS011;6753;52.520;13.450;2023-01-23T00:28:20;1103.05;;;942.22;;
13368;SDS011;6753;52.520;13.450;2023-01-23T00:28:31;1099.43;;;939.92;;
13368;SDS011;6753;52.520;13.450;2023-01-23T00:28:41;1098.13;;;939.17;;
13368;SDS011;6753;52.520;13.450;2023-01-23T00:28:54;1096.07;;;938.53;;
13368;SDS011;6753;52.520;13.450;2023-01-23T00:29:05;1097.78;;;938.53;;
13368;SDS011;6753;52.520;13.450;2023-01-23T00:29:16;1097.75;;;938.30;;
13368;SDS011;6753;52.520;13.450;2023-01-23T00:29:27;1103.40;;;941.40;;
13368;SDS011;6753;52.520;13.450;2023-01-23T00:29:37;1106.15;;;943.38;;
13368;SDS011;6753;52.520;13.450;2023-01-23T00:29:50;1107.00;;;943.67;;
13368;SDS011;6753;52.520;13.450;2023-01-23T00:30:01;1108.07;;;944.83;;
13368;SDS011;6753;52.520;13.450;2023-01-23T00:30:13;1112.32;;;946.53;;
13368;SDS011;6753;52.520;13.450;2023-01-23T00:30:25;1112.05;;;945.00;;
13368;SDS011;6753;52.520;13.450;2023-01-23T00:30:36;1112.60;;;946.10;;
13368;SDS011;6753;52.520;13.450;2023-01-23T00:30:46;1120.25;;;949.53;;
13368;SDS011;6753;52.520;13.450;2023-01-23T00:31:01;1131.05;;;953.20;;
13368;SDS011;6753;52.520;13.450;2023-01-23T00:31:14;1140.00;;;957.00;;
13368;SDS011;6753;52.520;13.450;2023-01-23T00:31:28;1150.65;;;963.83;;
13368;SDS011;6753;52.520;13.450;2023-01-23T00:31:41;1154.68;;;966.15;;
13368;SDS011;6753;52.520;13.450;2023-01-23T00:31:52;1149.18;;;965.88;;
13368;SDS011;6753;52.520;13.450;2023-01-23T00:32:03;1141.15;;;961.97;;
13368;SDS011;6753;52.520;13.450;2023-01-23T00:32:14;1134.47;;;959.17;;
13368;SDS011;6753;52.520;13.450;2023-01-23T00:32:24;1127.50;;;955.05;;
13368;SDS011;6753;52.520;13.450;2023-01-23T00:32:37;1115.80;;;948.45;;
13368;SDS011;6753;52.520;13.450;2023-01-23T00:32:47;1114.70;;;947.20;;
13368;SDS011;6753;52.520;13.450;2023-01-23T00:32:58;1114.00;;;946.70;;
13368;SDS011;6753;52.520;13.450;2023-01-23T00:33:09;1117.07;;;946.97;;
13368;SDS011;6753;52.520;13.450;2023-01-23T00:33:20;1121.75;;;950.20;;
13368;SDS011;6753;52.520;13.450;2023-01-23T00:33:30;1127.88;;;952.00;;
13368;SDS011;6753;52.520;13.450;2023-01-23T00:33:42;1131.70;;;952.70;;
13368;SDS011;6753;52.520;13.450;2023-01-23T00:33:54;1134.75;;;954.05;;
13368;SDS011;6753;52.520;13.450;2023-01-23T00:34:07;1141.00;;;957.88;;
13368;SDS011;6753;52.520;13.450;2023-01-23T00:34:21;1143.45;;;958.63;;
13368;SDS011;6753;52.520;13.450;2023-01-23T00:34:32;1142.63;;;958.30;;
13368;SDS011;6753;52.520;13.450;2023-01-23T00:34:43;1138.80;;;957.10;;
13368;SDS011;6753;52.520;13.450;2023-01-23T00:34:55;1132.70;;;953.15;;
13368;SDS011;6753;52.520;13.450;2023-01-23T00:35:06;1122.45;;;947.13;;
13368;SDS011;6753;52.520;13.450;2023-01-23T00:35:17;1112.88;;;943.22;;
13368;SDS011;6753;52.520;13.450;2023-01-23T00:35:28;1105.57;;;939.95;;
13368;SDS011;6753;52.520;13.450;2023-01-23T00:35:38;1101.05;;;939.50;;
13368;SDS011;6753;52.520;13.450;2023-01-23T00:35:52;1097.17;;;937.80;;
13368;SDS011;6753;52.520;13.450;2023-01-23T00:36:03;1091.72;;;936.97;;
13368;SDS011;6753;52.520;13.450;2023-01-23T00:36:15;1088.13;;;936.10;;
13368;SDS011;6753;52.520;13.450;2023-01-23T00:36:27;1081.30;;;934.13;;
13368;SDS011;6753;52.520;13.450;2023-01-23T00:36:40;1073.20;;;929.15;;
13368;SDS011;6753;52.520;13.450;2023-01-23T00:36:52;1067.60;;;925.65;;
13368;SDS011;6753;52.520;13.450;2023-01-23T00:37:03;1062.80;;;920.97;;
13368;SDS011;6753;52.520;13.450;2023-01-23T00:37:14;1056.22;;;917.35;;
13368;SDS011;6753;52.520;13.450;2023-01-23T00:37:25;1050.47;;;914.38;;
13368;SDS011;6753;52.520;13.450;2023-01-23T00:37:36;1047.80;;;913.40;;
13368;SDS011;6753;52.520;13.450;2023-01-23T00:37:47;1047.07;;;913.40;;
13368;SDS011;6753;52.520;13.450;2023-01-23T00:37:57;1044.03;;;912.45;;
13368;SDS011;6753;52.520;13.450;2023-01-23T00:38:08;1043.30;;;914.22;;
13368;SDS011;6753;52.520;13.450;2023-01-23T00:38:20;1043.45;;;913.40;;
13368;SDS011;6753;52.520;13.450;2023-01-23T00:38:30;1043.60;;;913.20;;
13368;SDS011;6753;52.520;13.450;2023-01-23T00:38:41;1042.65;;;912.85;;
13368;SDS011;6753;52.520;13.450;2023-01-23T00:38:52;1044.50;;;915.00;;
13368;SDS011;6753;52.520;13.450;2023-01-23T00:39:04;1045.90;;;914.53;;
13368;SDS011;6753;52.520;13.450;2023-01-23T00:39:19;1047.72;;;915.63;;
13368;SDS011;6753;52.520;13.450;2023-01-23T00:39:30;1052.75;;;918.40;;
13368;SDS011;6753;52.520;13.450;2023-01-23T00:39:42;1055.03;;;918.80;;
13368;SDS011;6753;52.520;13.450;2023-01-23T00:39:54;1052.85;;;917.45;;
13368;SDS011;6753;52.520;13.450;2023-01-23T00:40:06;1051.75;;;917.55;;
13368;SDS011;6753;52.520;13.450;2023-01-23T00:40:17;1050.47;;;917.50;;
13368;SDS011;6753;52.520;13.450;2023-01-23T00:40:28;1046.65;;;914.55;;
13368;SDS011;6753;52.520;13.450;2023-01-23T00:40:39;1044.90;;;914.00;;
13368;SDS011;6753;52.520;13.450;2023-01-23T00:40:49;1044.65;;;912.42;;
13368;SDS011;6753;52.520;13.450;2023-01-23T00:41:01;1043.78;;;910.78;;
13368;SDS011;6753;52.520;13.450;2023-01-23T00:41:12;1042.57;;;909.97;;
13368;SDS011;6753;52.520;13.450;2023-01-23T00:41:24;1041.50;;;909.75;;
13368;SDS011;6753;52.520;13.450;2023-01-23T00:41:34;1040.95;;;909.80;;
13368;SDS011;6753;52.520;13.450;2023-01-23T00:41:46;1040.43;;;911.20;;
13368;SDS011;6753;52.520;13.450;2023-01-23T00:41:57;1039.70;;;912.55;;
13368;SDS011;6753;52.520;13.450;2023-01-23T00:42:08;1041.13;;;911.85;;
13368;SDS011;6753;52.520;13.450;2023-01-23T00:42:19;1042.68;;;912.72;;
13368;SDS011;6753;52.520;13.450;2023-01-23T00:42:29;1044.97;;;914.13;;
13368;SDS011;6753;52.520;13.450;2023-01-23T00:42:41;1048.97;;;915.08;;
13368;SDS011;6753;52.520;13.450;2023-01-23T00:42:53;1054.43;;;917.38;;
13368;SDS011;6753;52.520;13.450;2023-01-23T00:43:04;1058.38;;;921.63;;
13368;SDS011;6753;52.520;13.450;2023-01-23T00:43:15;1066.43;;;925.17;;
13368;SDS011;6753;52.520;13.450;2023-01-23T00:43:25;1073.15;;;928.78;;
13368;SDS011;6753;52.520;13.450;2023-01-23T00:43:36;1080.03;;;934.85;;
13368;SDS011;6753;52.520;13.450;2023-01-23T00:43:47;1086.17;;;938.63;;
13368;SDS011;6753;52.520;13.450;2023-01-23T00:44:00;1093.50;;;941.10;;
13368;SDS011;6753;52.520;13.450;2023-01-23T00:44:11;1097.70;;;942.87;;
13368;SDS011;6753;52.520;13.450;2023-01-23T00:44:23;1100.53;;;943.92;;
13368;SDS011;6753;52.520;13.450;2023-01-23T00:44:34;1100.28;;;942.75;;
13368;SDS011;6753;52.520;13.450;2023-01-23T00:44:45;1102.18;;;941.63;;
13368;SDS011;6753;52.520;13.450;2023-01-23T00:44:55;1104.50;;;942.72;;
13368;SDS011;6753;52.520;13.450;2023-01-23T00:45:06;1109.10;;;946.40;;
13368;SDS011;6753;52.520;13.450;2023-01-23T00:45:17;1110.60;;;948.15;;
13368;SDS011;6753;52.520;13.450;2023-01-23T00:45:28;1110.93;;;949.47;;
13368;SDS011;6753;52.520;13.450;2023-01-23T00:45:39;1110.53;;;950.08;;
13368;SDS011;6753;52.520;13.450;2023-01-23T00:45:50;1110.65;;;951.75;;
13368;SDS011;6753;52.520;13.450;2023-01-23T00:46:01;1112.13;;;951.40;;
13368;SDS011;6753;52.520;13.450;2023-01-23T00:46:12;1114.75;;;951.45;;
13368;SDS011;6753;52.520;13.450;2023-01-23T00:46:23;1114.68;;;952.75;;
13368;SDS011;6753;52.520;13.450;2023-01-23T00:46:34;1119.55;;;954.47;;
13368;SDS011;6753;52.520;13.450;2023-01-23T00:46:46;1122.30;;;954.70;;
13368;SDS011;6753;52.520;13.450;2023-01-23T00:46:57;1123.47;;;955.90;;
13368;SDS011;6753;52.520;13.450;2023-01-23T00:47:09;1120.88;;;954.47;;
13368;SDS011;6753;52.520;13.450;2023-01-23T00:47:20;1121.32;;;953.30;;
13368;SDS011;6753;52.520;13.450;2023-01-23T00:47:30;1121.80;;;952.13;;
13368;SDS011;6753;52.520;13.450;2023-01-23T00:47:41;1119.13;;;951.50;;
13368;SDS011;6753;52.520;13.450;2023-01-23T00:47:52;1113.65;;;948.72;;
13368;SDS011;6753;52.520;13.450;2023-01-23T00:48:03;1109.78;;;947.70;;
13368;SDS011;6753;52.520;13.450;2023-01-23T00:48:14;1102.57;;;946.17;;
13368;SDS011;6753;52.520;13.450;2023-01-23T00:48:25;1100.80;;;945.80;;
13368;SDS011;6753;52.520;13.450;2023-01-23T00:48:36;1094.65;;;943.97;;
13368;SDS011;6753;52.520;13.450;2023-01-23T00:48:47;1089.75;;;941.75;;
13368;SDS011;6753;52.520;13.450;2023-01-23T00:48:58;1086.05;;;939.40;;
13368;SDS011;6753;52.520;13.450;2023-01-23T00:49:09;1084.25;;;937.40;;
13368;SDS011;6753;52.520;13.450;2023-01-23T00:49:19;1080.50;;;936.63;;
13368;SDS011;6753;52.520;13.450;2023-01-23T00:49:30;1076.28;;;935.22;;
13368;SDS011;6753;52.520;13.450;2023-01-23T00:49:41;1077.95;;;933.95;;
13368;SDS011;6753;52.520;13.450;2023-01-23T00:49:53;1080.43;;;935.15;;
13368;SDS011;6753;52.520;13.450;2023-01-23T00:50:06;1081.30;;;937.00;;
13368;SDS011;6753;52.520;13.450;2023-01-23T00:50:18;1078.93;;;934.95;;
13368;SDS011;6753;52.520;13.450;2023-01-23T00:50:29;1075.50;;;931.50;;
13368;SDS011;6753;52.520;13.450;2023-01-23T00:50:39;1067.38;;;929.53;;
13368;SDS011;6753;52.520;13.450;2023-01-23T00:50:50;1056.95;;;924.50;;
13368;SDS011;6753;52.520;13.450;2023-01-23T00:51:01;1053.97;;;920.95;;
13368;SDS011;6753;52.520;13.450;2023-01-23T00:51:13;1051.80;;;919.38;;
13368;SDS011;6753;52.520;13.450;2023-01-23T00:51:23;1050.78;;;919.20;;
13368;SDS011;6753;52.520;13.450;2023-01-23T00:51:35;1053.13;;;920.17;;
13368;SDS011;6753;52.520;13.450;2023-01-23T00:51:45;1056.13;;;920.20;;
13368;SDS011;6753;52.520;13.450;2023-01-23T00:51:56;1056.57;;;921.13;;
13368;SDS011;6753;52.520;13.450;2023-01-23T00:52:07;1056.67;;;920.23;;
13368;SDS011;6753;52.520;13.450;2023-01-23T00:52:20;1054.50;;;919.13;;
13368;SDS011;6753;52.520;13.450;2023-01-23T00:52:32;1054.00;;;918.38;;
13368;SDS011;6753;52.520;13.450;2023-01-23T00:52:42;1052.03;;;917.90;;
13368;SDS011;6753;52.520;13.450;2023-01-23T00:52:53;1049.23;;;917.13;;
13368;SDS011;6753;52.520;13.450;2023-01-23T00:53:04;1042.95;;;916.22;;
13368;SDS011;6753;52.520;13.450;2023-01-23T00:53:14;1039.38;;;915.70;;
13368;SDS011;6753;52.520;13.450;2023-01-23T00:53:25;1038.30;;;915.25;;
13368;SDS011;6753;52.520;13.450;2023-01-23T00:53:36;1036.97;;;914.70;;
13368;SDS011;6753;52.520;13.450;2023-01-23T00:53:47;1034.20;;;913.05;;
13368;SDS011;6753;52.520;13.450;2023-01-23T00:53:58;1036.75;;;913.83;;
13368;SDS011;6753;52.520;13.450;2023-01-23T00:54:10;1045.22;;;914.88;;
13368;SDS011;6753;52.520;13.450;2023-01-23T00:54:21;1052.03;;;916.97;;
13368;SDS011;6753;52.520;13.450;2023-01-23T00:54:32;1054.63;;;917.30;;
13368;SDS011;6753;52.520;13.450;2023-01-23T00:54:42;1055.30;;;917.65;;
13368;SDS011;6753;52.520;13.450;2023-01-23T00:54:53;1056.83;;;917.93;;
13368;SDS011;6753;52.520;13.450;2023-01-23T00:55:04;1054.13;;;918.10;;
13368;SDS011;6753;52.520;13.450;2023-01-23T00:55:16;1053.97;;;919.67;;
13368;SDS011;6753;52.520;13.450;2023-01-23T00:55:27;1055.60;;;921.30;;
13368;SDS011;6753;52.520;13.450;2023-01-23T00:55:37;1058.60;;;924.35;;
13368;SDS011;6753;52.520;13.450;2023-01-23T00:55:49;1065.80;;;927.30;;
13368;SDS011;6753;52.520;13.450;2023-01-23T00:56:00;1070.17;;;929.23;;
13368;SDS011;6753;52.520;13.450;2023-01-23T00:56:11;1072.75;;;931.13;;
13368;SDS011;6753;52.520;13.450;2023-01-23T00:56:22;1072.85;;;932.65;;
13368;SDS011;6753;52.520;13.450;2023-01-23T00:56:33;1075.80;;;934.22;;
13368;SDS011;6753;52.520;13.450;2023-01-23T00:56:44;1077.10;;;934.45;;
13368;SDS011;6753;52.520;13.450;2023-01-23T00:56:57;1077.20;;;935.05;;
13368;SDS011;6753;52.520;13.450;2023-01-23T00:57:08;1074.70;;;934.90;;
13368;SDS011;6753;52.520;13.450;2023-01-23T00:57:18;1073.60;;;932.90;;
13368;SDS011;6753;52.520;13.450;2023-01-23T00:57:29;1078.70;;;934.10;;
13368;SDS011;6753;52.520;13.450;2023-01-23T00:57:40;1083.85;;;935.08;;
13368;SDS011;6753;52.520;13.450;2023-01-23T00:57:50;1086.10;;;935.17;;
13368;SDS011;6753;52.520;13.450;2023-01-23T00:58:02;1090.82;;;937.88;;
13368;SDS011;6753;52.520;13.450;2023-01-23T00:58:13;1094.95;;;940.03;;
13368;SDS011;6753;52.520;13.450;2023-01-23T00:58:25;1094.57;;;941.30;;
13368;SDS011;6753;52.520;13.450;2023-01-23T00:58:36;1090.93;;;941.97;;
13368;SDS011;6753;52.520;13.450;2023-01-23T00:58:47;1089.63;;;943.50;;
13368;SDS011;6753;52.520;13.450;2023-01-23T00:58:57;1087.55;;;943.58;;
13368;SDS011;6753;52.520;13.450;2023-01-23T00:59:08;1085.82;;;940.97;;
13368;SDS011;6753;52.520;13.450;2023-01-23T00:59:19;1086.55;;;941.35;;
13368;SDS011;6753;52.520;13.450;2023-01-23T00:59:30;1085.17;;;939.80;;
13368;SDS011;6753;52.520;13.450;2023-01-23T00:59:41;1085.88;;;939.10;;
13368;SDS011;6753;52.520;13.450;2023-01-23T00:59:52;1086.38;;;938.78;;
13368;SDS011;6753;52.520;13.450;2023-01-23T01:00:03;1082.37;;;937.20;;
13368;SDS011;6753;52.520;13.450;2023-01-23T01:00:15;1083.22;;;936.78;;
13368;SDS011;6753;52.520;13.450;2023-01-23T01:00:26;1080.82;;;935.67;;
13368;SDS011;6753;52.520;13.450;2023-01-23T01:00:37;1080.90;;;934.73;;
13368;SDS011;6753;52.520;13.450;2023-01-23T01:00:48;1077.33;;;933.63;;
13368;SDS011;6753;52.520;13.450;2023-01-23T01:00:59;1076.97;;;934.55;;
13368;SDS011;6753;52.520;13.450;2023-01-23T01:01:09;1074.13;;;934.47;;
13368;SDS011;6753;52.520;13.450;2023-01-23T01:01:22;1070.25;;;928.97;;
13368;SDS011;6753;52.520;13.450;2023-01-23T01:01:33;1065.10;;;927.47;;
13368;SDS011;6753;52.520;13.450;2023-01-23T01:01:44;1061.72;;;925.97;;
13368;SDS011;6753;52.520;13.450;2023-01-23T01:01:55;1056.70;;;923.20;;
13368;SDS011;6753;52.520;13.450;2023-01-23T01:02:06;1054.93;;;920.38;;
13368;SDS011;6753;52.520;13.450;2023-01-23T01:02:17;1053.28;;;922.22;;
13368;SDS011;6753;52.520;13.450;2023-01-23T01:02:27;1047.35;;;920.75;;
13368;SDS011;6753;52.520;13.450;2023-01-23T01:02:38;1045.90;;;917.27;;
13368;SDS011;6753;52.520;13.450;2023-01-23T01:02:50;1047.18;;;916.92;;
13368;SDS011;6753;52.520;13.450;2023-01-23T01:03:00;1047.10;;;917.35;;
13368;SDS011;6753;52.520;13.450;2023-01-23T01:03:11;1045.20;;;917.53;;
13368;SDS011;6753;52.520;13.450;2023-01-23T01:03:22;1042.70;;;917.00;;
13368;SDS011;6753;52.520;13.450;2023-01-23T01:03:34;1044.78;;;919.50;;